Time;durP1;ratioP1;P1;durP2;ratioP2;P2;SDS_P1;SDS_P2;PMS_P1;PMS_P2;Temp;Humidity;BMP_temperature;BMP_pressure;BME280_temperature;BME280_humidity;BME280_pressure;Samples;Min_cycle;Max_cycle;Signal;HPM_P1;HPM_P2
2021/12/12 00:00:04;;;;;;;29.70;12.90;;;;;;;0.79;97.57;101492.82;102861;1349;70411;-77
2021/12/12 00:02:45;;;;;;;31.50;14.10;;;;;;;0.83;97.73;101491.25;102898;1344;74208;-77
2021/12/12 00:05:15;;;;;;;29.00;13.30;;;;;;;0.86;98.10;101483.05;102886;1352;60628;-78
2021/12/12 00:07:43;;;;;;;32.10;12.80;;;;;;;0.90;98.38;101478.09;102786;1348;60645;-78
2021/12/12 00:10:17;;;;;;;30.80;13.30;;;;;;;0.95;98.47;101476.59;102819;1352;76025;-78
2021/12/12 00:12:48;;;;;;;30.30;13.00;;;;;;;1.02;98.94;101474.20;102819;1345;72688;-78
2021/12/12 00:17:50;;;;;;;;;;;;;;;1.13;98.62;101470.40;102541;1331;60138;-76
2021/12/12 00:20:23;;;;;;;24.50;11.90;;;;;;;1.18;98.46;101464.33;102716;1352;59744;-77
2021/12/12 00:22:50;;;;;;;30.90;12.40;;;;;;;1.24;98.30;101461.05;102713;1351;76343;-77
2021/12/12 00:25:17;;;;;;;35.50;14.10;;;;;;;1.28;98.29;101458.19;102813;1354;72491;-77
2021/12/12 00:27:44;;;;;;;25.60;12.30;;;;;;;1.31;98.17;101464.23;102768;1351;73020;-77
2021/12/12 00:30:16;;;;;;;28.40;13.10;;;;;;;1.32;97.91;101463.33;102727;1347;60686;-77
2021/12/12 00:32:42;;;;;;;25.10;12.50;;;;;;;1.32;97.80;101462.11;102365;1354;60667;-77
2021/12/12 00:35:13;;;;;;;35.60;13.80;;;;;;;1.30;97.63;101469.55;102452;1347;74013;-78
2021/12/12 00:37:40;;;;;;;39.30;14.70;;;;;;;1.28;97.67;101473.72;102756;1347;71808;-79
2021/12/12 00:40:23;;;;;;;31.20;12.60;;;;;;;1.26;97.94;101478.51;103345;1334;73009;-77
2021/12/12 00:42:54;;;;;;;31.10;13.20;;;;;;;1.25;98.79;101480.82;102368;1349;61633;-79
2021/12/12 00:45:22;;;;;;;26.90;12.00;;;;;;;1.26;99.04;101475.03;102896;1348;61886;-79
2021/12/12 00:50:31;;;;;;;33.50;14.50;;;;;;;1.29;99.91;101475.71;102817;1342;69468;-79
2021/12/12 00:53:00;;;;;;;31.80;12.30;;;;;;;1.31;99.89;101469.67;103660;1333;74307;-80
2021/12/12 00:55:28;;;;;;;43.70;12.40;;;;;;;1.32;99.80;101471.17;102849;1352;61225;-80
2021/12/12 00:57:55;;;;;;;31.90;14.00;;;;;;;1.34;99.97;101474.90;102613;1345;60568;-80
2021/12/12 01:00:27;;;;;;;36.10;16.10;;;;;;;1.34;99.82;101475.94;102541;1344;75226;-80
2021/12/12 01:02:55;;;;;;;43.70;15.40;;;;;;;1.33;99.88;101474.93;102849;1345;72571;-78
2021/12/12 01:05:23;;;;;;;33.50;15.40;;;;;;;1.34;100.00;101472.80;102215;1352;73166;-80
2021/12/12 01:07:51;;;;;;;34.20;14.40;;;;;;;1.35;99.96;101470.27;102875;1344;63148;-78
2021/12/12 01:10:21;;;;;;;37.30;14.80;;;;;;;1.37;99.92;101466.48;102917;1344;61384;-77
2021/12/12 01:12:48;;;;;;;30.60;14.60;;;;;;;1.40;99.89;101465.95;102882;1351;75158;-77
2021/12/12 01:15:24;;;;;;;32.20;14.10;;;;;;;1.42;99.75;101460.74;102027;1348;71366;-77
2021/12/12 01:17:55;;;;;;;36.60;14.80;;;;;;;1.44;99.55;101459.25;102908;1349;73990;-77
2021/12/12 01:20:31;;;;;;;28.00;13.10;;;;;;;1.45;99.60;101458.36;102911;1345;63043;-79
2021/12/12 01:23:04;;;;;;;29.20;13.30;;;;;;;1.45;99.26;101456.24;102492;1351;61652;-77
2021/12/12 01:30:58;;;;;;;32.90;13.40;;;;;;;1.41;99.75;101460.86;102442;1335;72232;-80
2021/12/12 01:43:43;;;;;;;34.80;14.00;;;;;;;1.54;98.95;101466.14;102794;1335;73035;-78
2021/12/12 01:46:32;;;;;;;31.30;12.90;;;;;;;1.56;98.80;101464.41;102928;1345;61847;-79
2021/12/12 02:10:54;;;;;;;35.90;13.50;;;;;;;1.53;98.03;101445.95;102867;1334;128698;-77
2021/12/12 02:13:24;;;;;;;35.10;14.10;;;;;;;1.55;97.99;101443.94;102916;1348;59942;-77
2021/12/12 02:15:54;;;;;;;27.20;10.80;;;;;;;1.55;97.85;101445.13;102908;1351;60570;-77
2021/12/12 02:18:31;;;;;;;33.00;14.20;;;;;;;1.55;97.63;101448.08;102277;1352;76306;-77
2021/12/12 02:37:35;;;;;;;27.50;12.40;;;;;;;1.63;97.02;101454.36;102598;1350;72864;-78
2021/12/12 02:40:06;;;;;;;31.70;13.30;;;;;;;1.66;96.92;101452.15;101857;1358;60713;-78
2021/12/12 02:42:33;;;;;;;24.30;13.30;;;;;;;1.67;96.87;101450.33;102706;1347;61636;-78
2021/12/12 02:45:02;;;;;;;29.80;12.90;;;;;;;1.69;96.86;101452.45;102869;1346;75122;-78
2021/12/12 02:47:33;;;;;;;31.50;13.20;;;;;;;1.69;96.65;101456.61;102727;1348;72797;-79
2021/12/12 02:50:13;;;;;;;33.80;13.60;;;;;;;1.73;96.61;101458.66;103081;1335;71558;-78
2021/12/12 02:52:50;;;;;;;26.60;11.90;;;;;;;1.76;96.43;101460.04;102838;1351;61054;-78
2021/12/12 02:55:43;;;;;;;25.40;10.60;;;;;;;1.78;96.43;101462.85;102883;1351;60656;-79
2021/12/12 02:58:13;;;;;;;20.70;8.50;;;;;;;1.80;96.15;101474.20;102917;1351;75182;-79
2021/12/12 03:01:01;;;;;;;26.60;12.90;;;;;;;1.83;96.09;101475.77;101979;1358;71430;-78
2021/12/12 03:03:30;;;;;;;31.70;11.20;;;;;;;1.86;95.82;101465.63;102880;1351;74006;-78
2021/12/12 03:05:57;;;;;;;29.60;11.70;;;;;;;1.89;95.75;101461.08;102746;1351;60244;-78
2021/12/12 03:08:25;;;;;;;26.90;12.50;;;;;;;1.92;95.47;101465.77;102931;1349;60332;-79
2021/12/12 03:10:54;;;;;;;24.20;12.10;;;;;;;1.94;95.19;101471.55;102865;1347;75029;-79
2021/12/12 03:13:23;;;;;;;20.50;8.80;;;;;;;1.95;95.08;101475.19;102810;1351;71871;-79
2021/12/12 03:15:52;;;;;;;25.90;11.60;;;;;;;1.97;94.79;101480.05;102700;1347;73552;-79
2021/12/12 03:18:27;;;;;;;28.80;12.80;;;;;;;1.99;94.61;101482.59;102804;1351;61237;-77
2021/12/12 03:20:58;;;;;;;33.40;12.80;;;;;;;1.98;94.10;101482.62;102229;1354;60655;-78
2021/12/12 03:23:33;;;;;;;28.50;12.00;;;;;;;1.99;93.84;101478.89;102924;1351;76318;-79
2021/12/12 03:26:07;;;;;;;26.70;11.20;;;;;;;2.01;93.66;101473.77;102901;1351;71718;-79
2021/12/12 03:28:37;;;;;;;32.20;12.30;;;;;;;2.01;93.37;101470.75;102810;1347;74094;-79
2021/12/12 03:36:21;;;;;;;18.10;8.70;;;;;;;2.05;93.10;101457.77;102861;1335;75190;-79
2021/12/12 03:44:12;;;;;;;21.00;9.00;;;;;;;2.01;92.69;101456.80;103481;1334;128404;-78
2021/12/12 03:46:41;;;;;;;21.60;10.30;;;;;;;2.00;92.51;101453.20;102678;1332;63019;-81
2021/12/12 03:49:08;;;;;;;23.50;11.10;;;;;;;2.00;92.30;101447.08;102881;1335;131485;-78
2021/12/12 03:51:36;;;;;;;24.50;10.60;;;;;;;2.02;92.33;101449.23;102672;1349;72474;-78
2021/12/12 03:54:04;;;;;;;20.80;9.60;;;;;;;2.01;92.12;101447.37;102864;1351;71753;-78
2021/12/12 03:56:32;;;;;;;23.80;9.60;;;;;;;2.02;92.13;101452.73;102920;1351;60661;-77
2021/12/12 03:58:58;;;;;;;24.50;11.50;;;;;;;2.02;92.10;101453.09;102822;1348;61758;-78
2021/12/12 04:01:38;;;;;;;21.90;8.10;;;;;;;2.00;91.99;101445.70;102844;1349;75189;-77
2021/12/12 04:04:10;;;;;;;15.60;6.40;;;;;;;2.01;92.06;101440.04;102893;1345;71802;-77
2021/12/12 04:06:37;;;;;;;19.30;9.50;;;;;;;2.01;91.95;101442.84;102615;1346;74232;-77
2021/12/12 04:09:06;;;;;;;22.60;10.10;;;;;;;2.00;91.99;101447.13;102151;1352;61181;-77
2021/12/12 04:14:08;;;;;;;;;;;;;;;2.01;91.81;101429.40;103203;1334;72524;-77
2021/12/12 04:16:40;;;;;;;14.60;6.50;;;;;;;2.01;91.84;101431.64;102952;1344;71548;-78
2021/12/12 04:19:09;;;;;;;21.60;9.00;;;;;;;2.00;91.78;101432.42;102910;1351;74043;-78
2021/12/12 04:21:37;;;;;;;19.90;9.00;;;;;;;2.00;91.71;101441.38;102922;1345;61010;-78
2021/12/12 04:24:04;;;;;;;20.10;9.50;;;;;;;1.99;91.61;101435.48;102902;1345;59746;-77
2021/12/12 04:26:42;;;;;;;18.60;9.50;;;;;;;2.00;91.40;101441.00;102097;1354;74462;-77
2021/12/12 04:29:16;;;;;;;18.90;9.70;;;;;;;2.02;91.21;101446.11;102922;1351;71659;-77
2021/12/12 04:31:52;;;;;;;18.90;8.40;;;;;;;2.03;90.90;101438.20;102915;1343;73988;-77
2021/12/12 04:34:23;;;;;;;20.00;9.50;;;;;;;2.05;90.74;101437.87;102872;1351;59852;-78
2021/12/12 04:36:51;;;;;;;14.20;8.40;;;;;;;2.08;90.63;101442.41;102940;1345;60770;-79
2021/12/12 04:39:22;;;;;;;14.60;6.10;;;;;;;2.10;90.26;101446.28;101929;1352;74823;-79
2021/12/12 04:41:51;;;;;;;20.80;8.80;;;;;;;2.13;89.98;101443.83;102917;1341;71814;-79
2021/12/12 04:44:38;;;;;;;20.10;8.90;;;;;;;2.18;89.76;101441.23;102937;1345;73080;-78
2021/12/12 04:50:20;;;;;;;15.70;7.60;;;;;;;2.25;89.13;101440.02;102872;1345;60351;-78
2021/12/12 04:53:06;;;;;;;11.50;6.10;;;;;;;2.29;88.86;101437.52;102940;1345;75128;-77
2021/12/12 04:55:54;;;;;;;9.80;5.20;;;;;;;2.30;88.74;101433.80;102842;1345;72549;-77
2021/12/12 04:58:32;;;;;;;13.80;6.60;;;;;;;2.31;88.54;101441.25;102914;1345;73531;-77
2021/12/12 05:01:09;;;;;;;15.10;6.80;;;;;;;2.32;88.43;101447.80;102666;1349;61606;-78
2021/12/12 05:03:57;;;;;;;12.80;6.50;;;;;;;2.33;88.43;101447.00;102929;1351;60740;-77
2021/12/12 05:06:29;;;;;;;19.70;7.90;;;;;;;2.35;88.41;101445.13;102188;1351;74977;-78
2021/12/12 05:09:04;;;;;;;14.80;8.70;;;;;;;2.37;88.43;101443.59;102929;1345;71667;-77
2021/12/12 05:11:38;;;;;;;18.40;7.30;;;;;;;2.39;88.21;101439.45;102664;1351;73477;-77
2021/12/12 05:14:09;;;;;;;;;;;;;;;2.40;88.13;101435.19;102833;1348;60579;-77
2021/12/12 05:16:40;;;;;;;14.70;7.20;;;;;;;2.40;87.86;101435.71;102693;1345;270288;-78
2021/12/12 05:19:15;;;;;;;14.00;7.40;;;;;;;2.41;88.05;101441.95;102572;1352;75255;-77
2021/12/12 05:21:53;;;;;;;14.90;7.10;;;;;;;2.41;88.05;101442.61;102935;1345;71536;-79
2021/12/12 05:24:22;;;;;;;15.90;5.20;;;;;;;2.42;87.95;101441.33;102899;1349;72759;-77
2021/12/12 05:27:01;;;;;;;14.00;6.80;;;;;;;2.44;87.86;101438.61;102681;1345;61236;-77
2021/12/12 05:29:35;;;;;;;14.20;4.30;;;;;;;2.44;87.90;101430.89;102893;1345;61734;-78
2021/12/12 05:32:05;;;;;;;9.50;4.80;;;;;;;2.44;87.91;101423.95;102839;1334;75025;-76
2021/12/12 05:50:32;;;;;;;13.80;5.90;;;;;;;2.52;87.68;101426.74;102943;1334;71524;-76
2021/12/12 05:52:58;;;;;;;16.20;5.60;;;;;;;2.53;87.52;101424.91;102837;1348;61506;-77
2021/12/12 05:55:31;;;;;;;11.50;6.00;;;;;;;2.55;87.47;101421.97;102927;1348;59687;-77
2021/12/12 05:58:01;;;;;;;16.40;6.60;;;;;;;2.58;87.33;101423.84;102898;1347;76036;-77
2021/12/12 06:00:51;;;;;;;13.80;6.40;;;;;;;2.62;87.30;101424.60;102907;1344;70455;-77
2021/12/12 06:03:21;;;;;;;8.60;4.50;;;;;;;2.66;87.01;101426.11;102648;1345;74003;-77
2021/12/12 06:05:48;;;;;;;12.50;5.60;;;;;;;2.68;86.60;101428.39;102946;1347;60650;-77
2021/12/12 06:08:23;;;;;;;9.70;4.50;;;;;;;2.72;86.59;101427.98;102910;1351;60530;-77
2021/12/12 06:10:51;;;;;;;14.20;6.40;;;;;;;2.75;85.94;101434.60;102825;1348;76256;-78
2021/12/12 06:15:53;;;;;;;18.70;6.00;;;;;;;2.86;85.23;101429.77;102933;1343;71763;-77
2021/12/12 06:18:22;;;;;;;21.00;6.00;;;;;;;2.92;85.21;101429.91;102873;1345;60729;-78
2021/12/12 06:20:49;;;;;;;8.80;3.10;;;;;;;2.95;85.39;101431.65;102194;1345;62031;-78
2021/12/12 06:23:17;;;;;;;7.10;3.10;;;;;;;2.96;85.38;101435.89;102897;1345;76201;-78
2021/12/12 06:25:45;;;;;;;10.10;4.80;;;;;;;2.96;85.16;101434.67;102947;1348;71149;-78
2021/12/12 06:28:16;;;;;;;11.70;5.30;;;;;;;2.98;85.09;101437.71;102944;1344;74050;-79
2021/12/12 06:30:44;;;;;;;12.10;5.30;;;;;;;2.99;84.88;101438.15;102825;1345;61407;-79
2021/12/12 06:35:57;;;;;;;10.30;5.20;;;;;;;2.98;84.32;101441.55;102977;1332;130068;-80
2021/12/12 06:38:25;;;;;;;13.00;5.70;;;;;;;2.96;84.55;101440.84;102699;1333;73886;-80
2021/12/12 06:43:22;;;;;;;9.30;5.60;;;;;;;2.96;84.62;101443.96;102733;1333;59370;-81
2021/12/12 06:45:52;;;;;;;13.30;5.70;;;;;;;2.96;84.39;101446.77;102272;1335;63564;-82
2021/12/12 06:53:23;;;;;;;16.70;5.80;;;;;;;2.97;84.52;101450.19;102917;1345;70981;-77
2021/12/12 06:55:50;;;;;;;11.50;5.30;;;;;;;2.96;84.65;101458.45;102274;1353;60910;-77
2021/12/12 06:58:18;;;;;;;10.70;5.10;;;;;;;2.93;84.90;101447.64;102860;1345;61655;-78
2021/12/12 07:00:52;;;;;;;14.10;5.40;;;;;;;2.92;85.53;101445.83;102888;1348;76257;-77
2021/12/12 07:11:22;;;;;;;;;;;;;;;2.72;88.13;101444.05;102989;1333;59676;-78
2021/12/12 07:13:50;;;;;;;11.30;6.60;;;;;;;2.69;88.60;101446.70;102947;1345;74759;-77
2021/12/12 07:21:44;;;;;;;15.50;5.40;;;;;;;2.57;90.36;101429.48;103228;1335;59951;-77
2021/12/12 07:24:12;;;;;;;7.60;4.00;;;;;;;2.54;90.76;101426.73;102932;1345;60452;-79
2021/12/12 07:29:24;;;;;;;11.00;6.20;;;;;;;2.46;91.73;101427.10;103742;1331;66843;-75
2021/12/12 07:44:34;;;;;;;;;;;;;;;2.34;93.24;101429.30;103456;1334;71500;-78
2021/12/12 07:47:00;;;;;;;13.90;6.30;;;;;;;2.34;93.44;101424.07;103051;1332;63883;-78
2021/12/12 07:49:35;;;;;;;12.40;6.80;;;;;;;2.35;93.47;101422.09;102580;1333;62768;-78
2021/12/12 07:52:06;;;;;;;13.20;5.90;;;;;;;2.36;93.35;101433.57;102977;1345;75926;-78
2021/12/12 07:54:33;;;;;;;12.10;5.10;;;;;;;2.38;93.42;101435.02;102872;1344;71457;-78
2021/12/12 07:57:01;;;;;;;8.50;4.60;;;;;;;2.40;93.36;101434.46;102064;1354;72983;-77
2021/12/12 07:59:28;;;;;;;11.90;5.90;;;;;;;2.41;93.35;101433.00;102771;1345;61572;-77
2021/12/12 08:01:55;;;;;;;11.10;5.10;;;;;;;2.42;93.45;101432.98;102917;1345;61701;-77
2021/12/12 08:04:28;;;;;;;8.50;4.20;;;;;;;2.42;93.51;101429.10;102887;1348;73798;-77
2021/12/12 08:06:55;;;;;;;11.30;4.80;;;;;;;2.42;93.56;101436.26;102791;1345;72474;-77
2021/12/12 08:09:24;;;;;;;9.60;3.40;;;;;;;2.43;93.51;101434.30;102725;1347;74207;-77
2021/12/12 08:11:52;;;;;;;6.40;3.40;;;;;;;2.44;93.49;101436.29;102365;1351;61271;-77
2021/12/12 08:14:25;;;;;;;9.80;4.70;;;;;;;2.47;93.54;101439.27;102601;1334;60629;-77
2021/12/12 08:16:53;;;;;;;15.00;6.70;;;;;;;2.50;93.67;101441.89;102865;1347;75998;-77
2021/12/12 08:19:23;;;;;;;10.10;5.40;;;;;;;2.52;93.68;101438.58;102886;1347;71281;-77
2021/12/12 08:21:54;;;;;;;12.70;6.10;;;;;;;2.55;93.80;101433.86;102876;1348;73120;-77
2021/12/12 08:24:22;;;;;;;13.50;6.00;;;;;;;2.58;93.76;101437.49;102260;1348;62318;-77
2021/12/12 08:26:49;;;;;;;13.50;6.20;;;;;;;2.59;93.73;101441.06;102398;1351;60509;-77
2021/12/12 08:29:16;;;;;;;16.10;6.60;;;;;;;2.60;93.76;101441.84;102856;1348;76552;-77
2021/12/12 08:31:43;;;;;;;16.80;6.90;;;;;;;2.62;93.91;101439.44;102821;1347;71887;-77
2021/12/12 08:34:12;;;;;;;13.10;5.60;;;;;;;2.64;93.90;101440.91;102629;1350;73645;-77
2021/12/12 08:36:43;;;;;;;12.90;5.40;;;;;;;2.63;93.87;101441.14;102868;1346;60985;-77
2021/12/12 08:39:12;;;;;;;17.20;6.10;;;;;;;2.64;93.92;101435.52;102785;1348;61698;-77
2021/12/12 08:41:41;;;;;;;13.60;6.30;;;;;;;2.65;93.96;101429.67;102806;1347;75297;-78
2021/12/12 08:44:09;;;;;;;16.00;7.30;;;;;;;2.69;94.01;101414.75;102803;1348;72450;-79
2021/12/12 08:46:43;;;;;;;12.80;5.20;;;;;;;2.72;94.03;101403.17;102705;1348;71759;-80
2021/12/12 08:49:11;;;;;;;7.40;3.70;;;;;;;2.74;93.80;101404.08;102771;1351;62539;-80
2021/12/12 08:51:44;;;;;;;13.50;5.70;;;;;;;2.73;93.76;101400.63;102722;1348;59362;-80
2021/12/12 08:54:22;;;;;;;11.80;5.10;;;;;;;2.72;94.18;101396.50;102817;1351;75022;-80
2021/12/12 08:56:55;;;;;;;8.00;3.80;;;;;;;2.72;94.07;101389.52;102732;1348;71722;-80
2021/12/12 08:59:28;;;;;;;7.80;3.70;;;;;;;2.73;94.14;101395.05;102894;1353;73001;-80
2021/12/12 09:02:01;;;;;;;11.70;5.10;;;;;;;2.75;94.05;101398.97;102853;1351;62490;-80
2021/12/12 09:04:32;;;;;;;7.00;3.50;;;;;;;2.78;94.00;101402.77;102908;1346;61730;-80
2021/12/12 09:12:21;;;;;;;8.20;4.60;;;;;;;2.83;93.44;101409.03;102395;1335;70292;-79
2021/12/12 09:15:19;;;;;;;12.30;4.30;;;;;;;2.87;93.64;101406.46;99501;1350;601101;-75
2021/12/12 09:18:13;;;;;;;10.00;4.70;;;;;;;2.87;93.37;101409.27;101514;1329;60102;-77
2021/12/12 09:21:00;;;;;;;9.00;4.20;;;;;;;2.89;93.37;101414.20;101391;1325;60657;-75
2021/12/12 09:23:34;;;;;;;9.60;3.50;;;;;;;2.93;93.58;101416.19;101474;1326;73591;-77
2021/12/12 09:26:11;;;;;;;7.40;3.20;;;;;;;2.97;93.71;101410.50;101644;1324;73630;-76
2021/12/12 09:29:12;;;;;;;8.90;3.40;;;;;;;2.99;93.66;101405.10;99745;1321;2669253;-75
2021/12/12 09:32:14;;;;;;;11.60;4.10;;;;;;;3.02;94.12;101394.27;101836;1322;61468;-78
2021/12/12 09:35:42;;;;;;;9.10;3.10;;;;;;;3.05;94.04;101385.97;101469;1324;60313;-79
2021/12/12 09:38:24;;;;;;;6.70;3.20;;;;;;;3.09;93.95;101383.30;100861;1331;72992;-76
2021/12/12 09:41:08;;;;;;;4.90;2.80;;;;;;;3.13;94.19;101380.67;101069;1331;71506;-78
2021/12/12 09:44:02;;;;;;;6.50;2.40;;;;;;;3.15;94.18;101381.81;101581;1325;72766;-77
2021/12/12 09:46:45;;;;;;;6.80;2.20;;;;;;;3.17;94.26;101379.88;102185;1318;62502;-78
2021/12/12 09:53:00;;;;;;;6.50;2.50;;;;;;;3.27;94.37;101372.04;102296;1321;74407;-77
2021/12/12 09:55:47;;;;;;;7.70;3.50;;;;;;;3.35;94.35;101368.11;102230;1316;72815;-77
2021/12/12 09:58:34;;;;;;;6.50;2.80;;;;;;;3.41;94.07;101362.94;102182;1318;72950;-76
2021/12/12 10:01:06;;;;;;;8.30;3.10;;;;;;;3.43;93.73;101364.38;102404;1317;59690;-76
2021/12/12 10:04:14;;;;;;;8.10;4.10;;;;;;;3.46;93.37;101361.17;102588;1316;61669;-77
2021/12/12 10:07:00;;;;;;;6.00;2.90;;;;;;;3.51;93.40;101356.98;102357;1318;73166;-78
2021/12/12 10:09:39;;;;;;;;;;;;;;;3.52;93.02;101366.14;102444;1316;72210;-78
2021/12/12 10:12:31;;;;;;;;;;;;;;;;;;;;;
2021/12/12 10:14:58;;;;;;;11.40;4.00;;;;;;;3.56;92.68;101359.39;102155;1318;61295;-77
2021/12/12 10:17:37;;;;;;;5.90;2.80;;;;;;;3.58;92.88;101356.30;102217;1318;61699;-77
2021/12/12 10:20:18;;;;;;;6.30;2.90;;;;;;;3.59;92.82;101351.13;102392;1318;73337;-77
2021/12/12 10:23:06;;;;;;;8.60;2.70;;;;;;;3.58;93.28;101352.64;102681;1317;71106;-77
2021/12/12 10:25:39;;;;;;;5.80;2.40;;;;;;;3.55;93.61;101344.79;102213;1319;74546;-76
2021/12/12 10:28:27;;;;;;;5.70;3.20;;;;;;;3.54;94.11;101345.72;102231;1318;61369;-78
2021/12/12 10:31:15;;;;;;;8.10;3.20;;;;;;;3.54;94.45;101345.73;102107;1317;61888;-77
2021/12/12 10:34:03;;;;;;;4.90;2.40;;;;;;;3.53;94.60;101347.20;102139;1318;74394;-77
2021/12/12 10:36:44;;;;;;;8.90;3.00;;;;;;;3.53;94.87;101345.47;102122;1318;71393;-76
2021/12/12 10:39:35;;;;;;;7.50;3.30;;;;;;;3.53;94.97;101352.45;102018;1319;72881;-77
2021/12/12 10:42:08;;;;;;;7.50;2.60;;;;;;;3.56;94.80;101345.27;102232;1318;62462;-79
2021/12/12 10:44:46;;;;;;;6.00;2.90;;;;;;;3.60;94.96;101348.80;102311;1318;60442;-77
2021/12/12 10:47:23;;;;;;;5.90;2.90;;;;;;;3.64;94.98;101352.34;102210;1316;74288;-77
2021/12/12 10:50:15;;;;;;;6.30;3.00;;;;;;;3.69;94.75;101356.20;102119;1318;71801;-75
2021/12/12 10:52:57;;;;;;;9.00;2.80;;;;;;;3.72;94.00;101356.30;102149;1316;74226;-76
2021/12/12 10:55:32;;;;;;;4.20;2.30;;;;;;;3.76;94.33;101352.17;102232;1320;61512;-76
2021/12/12 10:58:16;;;;;;;6.30;2.90;;;;;;;3.81;94.27;101359.46;102144;1318;60341;-77
2021/12/12 11:00:54;;;;;;;5.90;3.00;;;;;;;3.87;94.17;101351.34;102232;1318;72218;-76
2021/12/12 11:03:31;;;;;;;5.80;2.80;;;;;;;3.92;93.91;101349.92;102290;1316;72793;-78
2021/12/12 11:06:15;;;;;;;6.70;3.10;;;;;;;3.97;94.18;101346.95;102579;1318;73180;-78
2021/12/12 11:09:07;;;;;;;7.30;2.80;;;;;;;4.00;94.46;101346.02;102418;1319;60695;-78
2021/12/12 11:11:45;;;;;;;7.80;2.80;;;;;;;4.01;94.53;101345.69;102462;1316;60596;-77
2021/12/12 11:14:20;;;;;;;5.90;2.30;;;;;;;4.02;95.07;101337.64;102358;1318;74382;-78
2021/12/12 11:16:54;;;;;;;4.20;2.10;;;;;;;4.02;94.96;101340.59;102891;1320;71480;-77
2021/12/12 11:19:50;;;;;;;7.80;2.40;;;;;;;4.03;95.10;101342.06;102269;1318;72884;-77
2021/12/12 11:22:26;;;;;;;5.50;2.00;;;;;;;4.05;95.22;101346.80;102102;1318;61946;-77
2021/12/12 11:24:58;;;;;;;5.40;2.30;;;;;;;4.06;95.12;101346.55;102380;1318;60403;-78
2021/12/12 11:27:32;;;;;;;7.00;2.50;;;;;;;4.06;95.11;101346.58;102060;1318;74358;-77
2021/12/12 11:30:07;;;;;;;2.90;1.80;;;;;;;4.07;94.97;101340.35;102309;1318;70414;-77
2021/12/12 11:32:44;;;;;;;4.40;2.80;;;;;;;4.08;94.93;101339.41;102299;1316;74150;-77
2021/12/12 11:35:16;;;;;;;4.80;1.70;;;;;;;4.10;94.89;101344.93;102255;1317;61516;-78
2021/12/12 11:37:51;;;;;;;6.20;2.20;;;;;;;4.11;94.92;101345.16;102309;1319;60618;-78
2021/12/12 11:40:36;;;;;;;9.20;2.10;;;;;;;4.13;94.69;101341.87;102212;1318;73373;-78
2021/12/12 11:43:11;;;;;;;4.80;2.10;;;;;;;4.15;94.66;101338.59;102222;1322;72692;-76
2021/12/12 11:45:42;;;;;;;6.40;2.30;;;;;;;4.16;94.66;101333.23;102177;1317;71934;-78
2021/12/12 11:48:28;;;;;;;6.20;2.60;;;;;;;4.20;94.35;101330.86;102792;1317;62294;-79
2021/12/12 11:50:54;;;;;;;;;;;;;;;4.22;94.66;101326.13;102199;1318;61534;-73
2021/12/12 11:53:48;;;;;;;5.10;2.10;;;;;;;4.25;94.61;101327.65;102149;1317;59818;-76
2021/12/12 11:56:24;;;;;;;4.80;2.60;;;;;;;4.24;95.31;101325.74;102375;1318;71811;-76
2021/12/12 11:59:11;;;;;;;6.00;2.80;;;;;;;4.23;95.46;101327.80;102012;1320;71683;-74
2021/12/12 12:02:03;;;;;;;4.20;2.20;;;;;;;4.22;96.13;101332.77;102180;1320;61474;-77
2021/12/12 12:04:59;;;;;;;6.00;2.40;;;;;;;4.18;96.78;101334.86;102479;1318;60034;-76
2021/12/12 12:07:41;;;;;;;;;;;;;;;4.14;97.38;101330.05;102504;1318;74371;-77
2021/12/12 12:10:38;;;;;;;4.50;2.50;;;;;;;4.12;97.89;101331.08;102650;1318;70816;-77
2021/12/12 12:13:44;;;;;;;4.20;2.00;;;;;;;4.09;98.50;101330.41;102858;1314;72802;-79
2021/12/12 12:16:26;;;;;;;4.80;1.70;;;;;;;4.09;98.50;101326.19;102697;1312;61730;-78
2021/12/12 12:19:16;;;;;;;4.60;2.20;;;;;;;4.12;98.44;101326.89;102687;1313;60658;-78
2021/12/12 12:21:55;;;;;;;5.60;2.10;;;;;;;4.14;98.58;101325.30;102885;1310;73264;-77
2021/12/12 12:24:44;;;;;;;4.40;2.20;;;;;;;4.18;98.51;101316.45;102699;1312;72407;-78
2021/12/12 12:27:18;;;;;;;4.50;2.00;;;;;;;4.21;98.70;101320.05;102634;1313;74002;-77
2021/12/12 12:30:13;;;;;;;3.00;1.90;;;;;;;4.23;98.82;101323.89;102838;1318;62329;-78
2021/12/12 12:33:08;;;;;;;2.20;1.70;;;;;;;4.22;99.11;101325.38;102947;1313;62128;-77
2021/12/12 12:36:12;;;;;;;3.60;1.80;;;;;;;4.22;99.15;101328.22;102674;1312;73252;-76
2021/12/12 12:39:17;;;;;;;2.90;1.70;;;;;;;4.20;99.30;101322.95;102662;1315;72765;-77
2021/12/12 12:42:02;;;;;;;5.30;2.30;;;;;;;4.20;99.51;101332.05;102765;1314;74463;-78
2021/12/12 12:45:09;;;;;;;3.80;2.10;;;;;;;4.21;99.84;101325.00;102893;1312;62295;-78
2021/12/12 12:48:33;;;;;;;3.70;1.80;;;;;;;4.22;99.90;101324.54;102924;1318;60747;-78
2021/12/12 12:51:00;;;;;;;3.40;1.80;;;;;;;4.24;99.92;101325.23;102813;1315;73723;-77
2021/12/12 12:53:45;;;;;;;4.60;2.10;;;;;;;4.26;100.00;101322.11;102821;1318;71490;-77
2021/12/12 12:56:52;;;;;;;5.40;1.60;;;;;;;4.28;100.00;101328.59;102773;1315;73149;-75
2021/12/12 12:59:57;;;;;;;4.00;2.00;;;;;;;4.31;100.00;101329.80;102778;1315;62443;-77
2021/12/12 13:02:32;;;;;;;3.90;1.90;;;;;;;4.31;100.00;101331.75;102839;1314;62065;-76
2021/12/12 13:05:07;;;;;;;3.90;1.90;;;;;;;4.31;100.00;101328.92;102842;1315;73541;-77
2021/12/12 13:07:40;;;;;;;3.30;2.10;;;;;;;4.31;100.00;101325.94;102815;1315;71494;-75
2021/12/12 13:10:21;;;;;;;3.60;2.30;;;;;;;4.31;100.00;101321.90;102843;1313;71791;-77
2021/12/12 13:13:15;;;;;;;2.90;1.70;;;;;;;4.31;100.00;101329.77;102731;1315;63021;-77
2021/12/12 13:16:07;;;;;;;3.10;1.50;;;;;;;4.33;100.00;101325.82;102935;1315;61398;-78
2021/12/12 13:18:57;;;;;;;2.90;1.60;;;;;;;4.32;100.00;101322.52;102851;1318;73254;-76
2021/12/12 13:21:26;;;;;;;3.10;1.90;;;;;;;4.34;100.00;101321.75;102992;1312;71373;-77
2021/12/12 13:24:08;;;;;;;5.50;2.00;;;;;;;4.34;100.00;101318.71;102839;1315;74262;-77
2021/12/12 13:27:29;;;;;;;5.10;2.50;;;;;;;4.36;100.00;101320.13;102872;1314;61761;-75
2021/12/12 13:30:13;;;;;;;4.30;2.40;;;;;;;4.38;100.00;101312.95;102803;1313;61580;-76
2021/12/12 13:32:59;;;;;;;4.70;1.90;;;;;;;4.38;100.00;101310.67;103018;1314;73762;-76
2021/12/12 13:36:02;;;;;;;4.80;2.10;;;;;;;4.38;100.00;101309.97;102913;1315;71431;-77
2021/12/12 13:38:39;;;;;;;3.10;1.60;;;;;;;4.38;100.00;101308.59;102846;1314;73785;-75
2021/12/12 13:41:20;;;;;;;3.70;1.70;;;;;;;4.39;100.00;101308.86;103135;1313;63074;-75
2021/12/12 13:44:03;;;;;;;3.30;1.70;;;;;;;4.41;100.00;101313.58;102930;1313;60738;-78
2021/12/12 13:46:41;;;;;;;4.00;1.60;;;;;;;4.45;100.00;101316.46;103011;1314;73528;-77
2021/12/12 13:49:11;;;;;;;2.60;1.50;;;;;;;4.48;100.00;101320.77;102876;1315;72504;-75
2021/12/12 13:51:52;;;;;;;2.80;2.00;;;;;;;4.52;100.00;101321.72;102887;1320;73332;-75
2021/12/12 13:54:24;;;;;;;2.60;1.80;;;;;;;4.55;100.00;101325.13;102742;1316;60954;-78
2021/12/12 13:57:15;;;;;;;5.50;2.20;;;;;;;4.57;100.00;101327.08;102847;1317;60604;-75
2021/12/12 13:59:51;;;;;;;3.10;1.80;;;;;;;4.60;100.00;101328.98;102879;1313;75421;-76
2021/12/12 14:02:18;;;;;;;4.00;1.70;;;;;;;4.61;100.00;101335.69;102722;1313;71226;-77
2021/12/12 14:04:51;;;;;;;2.20;1.30;;;;;;;4.63;100.00;101337.86;102686;1313;75162;-77
2021/12/12 14:07:23;;;;;;;5.40;1.70;;;;;;;4.64;100.00;101342.66;102808;1313;62210;-77
2021/12/12 14:09:54;;;;;;;4.60;2.30;;;;;;;4.63;100.00;101344.10;102751;1313;61816;-77
2021/12/12 14:12:27;;;;;;;5.20;2.10;;;;;;;4.63;100.00;101346.73;102636;1313;75378;-77
2021/12/12 14:15:01;;;;;;;5.60;2.20;;;;;;;4.63;100.00;101342.73;102423;1315;72501;-77
2021/12/12 14:17:43;;;;;;;4.10;2.50;;;;;;;4.62;100.00;101342.46;102909;1314;72950;-77
2021/12/12 14:20:14;;;;;;;4.40;2.30;;;;;;;4.63;100.00;101343.25;102759;1312;62444;-77
2021/12/12 14:22:44;;;;;;;3.40;2.10;;;;;;;4.63;100.00;101343.65;102839;1316;60471;-77
2021/12/12 14:25:11;;;;;;;3.20;2.10;;;;;;;4.64;100.00;101345.81;102777;1314;74096;-77